Time;durP1;ratioP1;P1;durP2;ratioP2;P2;SDS_P1;SDS_P2;PMS_P1;PMS_P2;Temp;Humidity;BMP_temperature;BMP_pressure;BME280_temperature;BME280_humidity;BME280_pressure;Samples;Min_cycle;Max_cycle;Signal;HPM_P1;HPM_P2
2020/12/17 00:00:20;;;;;;;6.50;3.03;;;;;;;9.47;78.99;100043.91;5076960;28;20720;-74
2020/12/17 00:02:46;;;;;;;3.95;2.50;;;;;;;9.40;78.78;100045.22;5077036;28;20102;-74
2020/12/17 00:05:12;;;;;;;4.88;3.00;;;;;;;9.36;79.30;100032.09;5076781;28;20346;-74
2020/12/17 00:07:40;;;;;;;4.30;2.75;;;;;;;9.47;79.29;100054.56;5076948;28;20057;-74
2020/12/17 00:10:07;;;;;;;7.07;2.97;;;;;;;9.42;78.93;100048.69;5076573;28;20056;-74
2020/12/17 00:12:36;;;;;;;7.18;2.90;;;;;;;9.52;78.29;100041.84;5076258;28;20060;-74
2020/12/17 00:15:06;;;;;;;3.90;2.65;;;;;;;9.51;77.98;100049.00;5076472;28;20048;-74
2020/12/17 00:17:38;;;;;;;5.13;2.83;;;;;;;9.51;78.57;100058.78;5076941;28;20048;-76
2020/12/17 00:20:04;;;;;;;6.45;3.08;;;;;;;9.56;78.06;100051.41;5077662;28;20052;-76
2020/12/17 00:22:38;;;;;;;5.72;3.25;;;;;;;9.58;77.93;100038.00;5078278;28;20052;-74
2020/12/17 00:25:09;;;;;;;6.10;3.25;;;;;;;9.60;77.77;100038.75;5081400;28;20424;-72
2020/12/17 00:27:36;;;;;;;5.18;3.15;;;;;;;9.73;77.56;100049.53;5077731;28;20110;-75
2020/12/17 00:30:05;;;;;;;9.02;4.03;;;;;;;9.76;77.67;100044.03;5078198;28;20082;-76
2020/12/17 00:32:31;;;;;;;6.57;3.35;;;;;;;9.75;77.85;100039.66;5078585;28;20048;-74
2020/12/17 00:34:57;;;;;;;8.18;3.75;;;;;;;9.78;77.88;100050.13;5077746;28;20052;-75
2020/12/17 00:37:28;;;;;;;4.55;3.42;;;;;;;9.76;78.20;100030.69;5076711;28;20052;-74
2020/12/17 00:39:54;;;;;;;;;;;;;;;9.82;77.59;100038.34;5078404;28;20057;-72
2020/12/17 00:42:20;;;;;;;7.35;3.60;;;;;;;9.60;78.37;100014.75;5079721;28;19935;-73
2020/12/17 00:44:46;;;;;;;7.05;3.75;;;;;;;9.82;78.12;100046.34;5077022;28;20060;-77
2020/12/17 00:47:12;;;;;;;6.38;4.10;;;;;;;9.82;78.83;100048.13;5077626;28;20078;-73
2020/12/17 00:49:38;;;;;;;6.43;4.05;;;;;;;9.80;78.55;100047.38;5076495;28;20060;-74
2020/12/17 00:52:05;;;;;;;8.45;3.92;;;;;;;9.79;79.02;100051.81;5060262;28;20446;-76
2020/12/17 00:54:31;;;;;;;13.15;4.68;;;;;;;9.82;79.17;100051.66;5076872;28;20048;-74
2020/12/17 00:56:57;;;;;;;8.07;4.30;;;;;;;9.78;79.57;100055.44;5077653;28;20055;-73
2020/12/17 00:59:23;;;;;;;7.57;4.45;;;;;;;9.74;80.08;100049.44;5077891;28;20048;-74
2020/12/17 01:01:50;;;;;;;8.10;4.50;;;;;;;9.70;80.12;100053.22;5078356;28;20442;-73
2020/12/17 01:04:16;;;;;;;11.00;5.05;;;;;;;9.71;80.37;100043.44;5078287;28;20075;-73
2020/12/17 01:06:44;;;;;;;9.77;4.85;;;;;;;9.71;80.67;100044.31;5077686;28;20053;-74
2020/12/17 01:09:11;;;;;;;7.30;4.28;;;;;;;9.53;80.98;100019.59;5076982;28;20056;-76
2020/12/17 01:11:37;;;;;;;8.05;4.50;;;;;;;9.73;80.77;100039.75;5077242;28;20106;-75
2020/12/17 01:14:04;;;;;;;8.73;5.20;;;;;;;9.63;80.99;100020.78;5078435;28;20098;-75
2020/12/17 01:16:30;;;;;;;9.40;4.72;;;;;;;9.74;80.90;100049.44;5075629;28;20066;-76
2020/12/17 01:18:57;;;;;;;10.02;5.18;;;;;;;9.81;80.67;100051.75;5079855;28;20062;-72
2020/12/17 01:21:23;;;;;;;10.10;4.90;;;;;;;9.83;80.66;100041.84;5080099;28;20070;-74
2020/12/17 01:23:49;;;;;;;9.35;5.10;;;;;;;9.81;80.72;100031.25;5077761;28;20094;-76
2020/12/17 01:26:15;;;;;;;10.32;6.07;;;;;;;9.83;80.57;100037.38;5077405;28;20048;-76
2020/12/17 01:28:42;;;;;;;8.40;5.05;;;;;;;9.89;80.41;100042.34;5075837;28;20049;-73
2020/12/17 01:31:09;;;;;;;8.48;4.97;;;;;;;9.85;80.54;100048.81;5079866;28;20068;-74
2020/12/17 01:33:36;;;;;;;9.38;4.75;;;;;;;9.81;80.44;100049.91;5079369;28;20045;-76
2020/12/17 01:36:08;;;;;;;8.38;4.70;;;;;;;9.81;81.11;100046.41;5077922;28;20079;-73
2020/12/17 01:38:35;;;;;;;7.45;4.70;;;;;;;9.78;80.91;100045.66;5075670;28;20106;-76
2020/12/17 01:41:03;;;;;;;5.57;5.00;;;;;;;9.81;80.90;100055.25;5078507;28;20079;-74
2020/12/17 01:43:45;;;;;;;6.80;5.07;;;;;;;9.82;80.81;100045.47;5078019;28;20139;-75
2020/12/17 01:46:14;;;;;;;7.22;4.68;;;;;;;9.78;80.69;100048.31;5078519;28;20052;-74
2020/12/17 01:48:41;;;;;;;12.13;5.40;;;;;;;9.83;80.78;100053.38;5078726;28;20189;-77
2020/12/17 01:51:08;;;;;;;7.63;5.38;;;;;;;9.81;80.80;100049.09;5076245;28;20110;-75
2020/12/17 01:53:40;;;;;;;7.82;4.63;;;;;;;9.81;80.81;100057.06;5077593;28;20130;-73
2020/12/17 01:56:12;;;;;;;6.93;4.88;;;;;;;9.81;81.05;100071.25;5080206;28;20045;-76
2020/12/17 01:58:48;;;;;;;7.68;4.70;;;;;;;9.77;80.57;100045.75;5079641;28;20053;-72
2020/12/17 02:01:16;;;;;;;9.68;4.90;;;;;;;9.85;80.68;100047.94;5079610;28;20392;-72
2020/12/17 02:03:43;;;;;;;10.95;5.28;;;;;;;9.84;81.07;100055.09;5080016;28;20060;-72
2020/12/17 02:06:09;;;;;;;8.60;5.00;;;;;;;9.80;80.95;100050.88;5080578;28;20426;-76
2020/12/17 02:08:38;;;;;;;7.78;4.57;;;;;;;9.76;81.23;100052.88;5080148;28;20049;-72
2020/12/17 02:11:09;;;;;;;9.38;5.22;;;;;;;9.68;81.50;100032.94;5080039;28;20114;-73
2020/12/17 02:13:36;;;;;;;8.82;5.43;;;;;;;9.66;81.61;100041.06;5080451;28;20057;-73
2020/12/17 02:16:06;;;;;;;7.32;4.80;;;;;;;9.63;82.12;100049.22;5078742;28;20059;-73
2020/12/17 02:18:33;;;;;;;10.23;5.15;;;;;;;9.67;81.82;100045.44;5079263;28;20449;-73
2020/12/17 02:21:00;;;;;;;6.10;4.40;;;;;;;9.74;81.22;100046.78;5078609;28;20048;-73
2020/12/17 02:23:27;;;;;;;6.80;4.97;;;;;;;9.76;81.19;100046.69;5079041;28;20047;-72
2020/12/17 02:25:53;;;;;;;8.55;4.43;;;;;;;9.75;80.94;100034.31;5077469;28;20053;-75
2020/12/17 02:28:21;;;;;;;7.18;4.85;;;;;;;9.77;81.23;100043.06;5075935;28;20048;-73
2020/12/17 02:30:48;;;;;;;7.05;4.13;;;;;;;9.75;81.07;100035.16;5076361;28;20044;-76
2020/12/17 02:33:15;;;;;;;7.20;4.45;;;;;;;9.76;81.54;100041.38;5076791;28;20060;-72
2020/12/17 02:35:42;;;;;;;13.38;4.80;;;;;;;9.68;81.48;100039.16;5076769;28;20098;-72
2020/12/17 02:38:08;;;;;;;6.47;4.70;;;;;;;9.65;81.24;100029.53;5076315;28;20114;-74
2020/12/17 02:40:36;;;;;;;7.05;4.35;;;;;;;9.78;80.93;100036.78;5075661;28;20052;-76
2020/12/17 02:43:02;;;;;;;6.97;4.57;;;;;;;9.74;80.90;100040.56;5075201;28;20052;-74
2020/12/17 02:45:31;;;;;;;12.43;4.55;;;;;;;9.63;81.05;100010.09;5075012;28;20102;-77
2020/12/17 02:47:57;;;;;;;6.40;4.68;;;;;;;9.77;81.26;100033.25;5075840;28;20052;-74
2020/12/17 02:50:23;;;;;;;6.53;4.32;;;;;;;9.71;81.54;100044.31;5078426;28;20052;-76
2020/12/17 02:52:49;;;;;;;10.10;4.43;;;;;;;9.70;81.34;100060.38;5079005;28;20048;-75
2020/12/17 02:55:16;;;;;;;7.88;4.80;;;;;;;9.71;81.61;100046.09;5077804;28;20493;-76
2020/12/17 02:57:42;;;;;;;11.82;5.53;;;;;;;9.70;81.59;100055.06;5078354;28;20048;-71
2020/12/17 03:00:10;;;;;;;13.80;4.82;;;;;;;9.69;81.57;100051.50;5078740;28;20105;-73
2020/12/17 03:02:37;;;;;;;4.78;4.28;;;;;;;9.70;81.54;100060.38;5076738;28;20048;-76
2020/12/17 03:05:05;;;;;;;7.15;4.03;;;;;;;9.74;81.60;100064.56;5078464;28;20106;-74
2020/12/17 03:07:32;;;;;;;8.50;4.03;;;;;;;9.70;81.49;100047.91;5079527;28;20517;-74
2020/12/17 03:09:59;;;;;;;8.98;4.45;;;;;;;9.70;81.56;100041.72;5078341;28;20057;-74
2020/12/17 03:12:25;;;;;;;8.35;4.68;;;;;;;9.57;81.87;100045.13;5079281;28;20048;-74
2020/12/17 03:14:51;;;;;;;7.72;4.80;;;;;;;9.63;81.89;100060.75;5078728;28;20063;-72
2020/12/17 03:17:17;;;;;;;6.13;3.72;;;;;;;9.71;81.64;100046.97;5078648;28;20055;-77
2020/12/17 03:19:43;;;;;;;14.05;4.00;;;;;;;9.71;81.55;100048.78;5059815;28;20430;-75
2020/12/17 03:22:10;;;;;;;6.80;3.90;;;;;;;9.64;81.63;100054.47;5077625;28;20048;-75
2020/12/17 03:24:36;;;;;;;7.45;3.92;;;;;;;9.73;81.66;100061.06;5076375;28;20384;-76
2020/12/17 03:27:03;;;;;;;7.70;4.07;;;;;;;9.69;81.21;100056.00;5077576;28;20105;-76
2020/12/17 03:29:29;;;;;;;6.28;3.67;;;;;;;9.72;81.43;100055.81;5078362;28;20053;-76
2020/12/17 03:31:55;;;;;;;8.75;3.83;;;;;;;9.70;81.61;100050.56;5078189;28;20080;-75
2020/12/17 03:34:21;;;;;;;5.68;3.30;;;;;;;9.63;81.85;100047.41;5077693;28;20064;-76
2020/12/17 03:36:48;;;;;;;7.30;3.78;;;;;;;9.70;81.73;100049.72;5077437;28;20049;-76
2020/12/17 03:39:14;;;;;;;6.88;3.60;;;;;;;9.73;81.76;100050.41;5076401;28;20052;-76
2020/12/17 03:41:40;;;;;;;6.18;3.45;;;;;;;9.61;81.94;100036.00;5077257;28;20057;-77
2020/12/17 03:44:07;;;;;;;5.43;3.35;;;;;;;9.64;82.24;100045.59;5076100;28;20353;-75
2020/12/17 03:46:34;;;;;;;8.10;3.38;;;;;;;9.67;82.13;100052.56;5076998;28;20040;-73
2020/12/17 03:49:00;;;;;;;5.32;3.53;;;;;;;9.69;81.79;100061.34;5076184;28;20465;-74
2020/12/17 03:51:26;;;;;;;7.85;3.60;;;;;;;9.68;81.85;100049.81;5077350;28;20048;-73
2020/12/17 03:53:52;;;;;;;7.18;3.33;;;;;;;9.63;81.86;100042.09;5077076;28;20056;-74
2020/12/17 03:56:18;;;;;;;8.40;3.90;;;;;;;9.71;81.97;100051.44;5059436;28;20048;-76
2020/12/17 03:58:44;;;;;;;5.35;3.53;;;;;;;9.67;81.87;100053.41;5077472;28;20049;-76
2020/12/17 04:01:10;;;;;;;5.40;3.53;;;;;;;9.74;81.50;100049.44;5076669;28;20102;-73
2020/12/17 04:03:36;;;;;;;9.07;3.70;;;;;;;9.75;81.49;100048.50;5075787;28;20053;-73
2020/12/17 04:06:03;;;;;;;7.95;3.38;;;;;;;9.72;81.85;100053.16;5077029;28;20426;-76
2020/12/17 04:08:29;;;;;;;6.28;3.33;;;;;;;9.79;81.18;100059.81;5076969;28;20056;-74
2020/12/17 04:10:55;;;;;;;6.00;3.50;;;;;;;9.71;81.34;100043.44;5077863;28;20048;-75
2020/12/17 04:13:21;;;;;;;8.20;4.05;;;;;;;9.74;81.87;100062.78;5076995;28;20130;-74
2020/12/17 04:15:47;;;;;;;7.05;3.70;;;;;;;9.85;80.83;100059.47;5076988;28;20101;-74
2020/12/17 04:18:13;;;;;;;8.60;4.28;;;;;;;9.86;81.00;100060.34;5077049;28;20048;-71
2020/12/17 04:20:39;;;;;;;7.63;3.70;;;;;;;9.78;81.53;100066.97;5076964;28;20430;-74
2020/12/17 04:23:06;;;;;;;9.80;3.10;;;;;;;9.76;81.50;100070.69;5079933;28;20056;-73
2020/12/17 04:25:32;;;;;;;8.93;3.60;;;;;;;9.77;81.56;100064.41;5077635;28;20177;-75
2020/12/17 04:27:58;;;;;;;6.07;3.97;;;;;;;9.32;81.36;99987.94;5076731;28;20415;-76
2020/12/17 04:30:24;;;;;;;7.47;3.28;;;;;;;9.77;81.64;100064.41;5080402;28;20056;-73
2020/12/17 04:32:50;;;;;;;5.40;3.45;;;;;;;9.63;81.99;100058.06;5083492;28;20052;-71
2020/12/17 04:35:17;;;;;;;6.22;3.85;;;;;;;9.79;81.71;100067.81;5082014;28;20088;-76
2020/12/17 04:37:43;;;;;;;6.43;3.33;;;;;;;9.81;81.32;100071.25;5077067;28;20045;-76
2020/12/17 04:40:09;;;;;;;8.30;4.00;;;;;;;9.79;81.53;100081.16;5075560;28;20078;-73
2020/12/17 04:42:36;;;;;;;10.65;4.28;;;;;;;9.77;81.75;100077.72;5075087;28;20056;-77
2020/12/17 04:45:03;;;;;;;7.78;3.78;;;;;;;9.79;81.88;100089.16;5075033;28;20052;-75
2020/12/17 04:47:31;;;;;;;7.90;3.70;;;;;;;9.82;81.85;100088.97;5075866;28;20063;-72
2020/12/17 04:50:05;;;;;;;5.40;3.63;;;;;;;9.73;82.35;100081.50;5075648;28;20048;-75
2020/12/17 04:52:34;;;;;;;5.47;3.47;;;;;;;9.69;82.94;100088.00;5075843;28;20056;-74
2020/12/17 04:55:01;;;;;;;7.75;3.58;;;;;;;9.61;83.62;100091.97;5075642;28;20127;-74
2020/12/17 04:57:29;;;;;;;6.20;3.72;;;;;;;9.58;83.41;100086.78;5074615;28;20051;-78
2020/12/17 04:59:55;;;;;;;7.32;3.85;;;;;;;9.70;83.28;100103.03;5075620;28;20048;-76
2020/12/17 05:02:23;;;;;;;7.88;3.38;;;;;;;9.56;83.55;100088.69;5075768;28;20052;-78
2020/12/17 05:04:51;;;;;;;6.25;3.50;;;;;;;9.57;84.40;100106.41;5075314;28;20351;-76
2020/12/17 05:07:20;;;;;;;7.97;4.47;;;;;;;9.37;85.17;100088.88;5075247;28;20044;-77
2020/12/17 05:09:48;;;;;;;7.60;3.70;;;;;;;9.40;85.14;100093.16;5075148;28;20442;-76
2020/12/17 05:12:15;;;;;;;7.97;3.88;;;;;;;9.43;85.60;100117.00;5074985;28;20053;-74
2020/12/17 05:14:42;;;;;;;8.05;3.55;;;;;;;9.43;85.60;100114.31;5074601;28;20351;-75
2020/12/17 05:17:09;;;;;;;5.72;3.47;;;;;;;9.47;85.68;100126.50;5074973;28;20071;-77
2020/12/17 05:19:36;;;;;;;4.70;3.30;;;;;;;9.33;86.67;100130.81;5075414;28;20053;-77
2020/12/17 05:22:04;;;;;;;7.03;3.40;;;;;;;9.37;86.20;100132.38;5074082;28;20055;-75
2020/12/17 05:24:31;;;;;;;6.78;3.42;;;;;;;9.33;86.78;100141.47;5075405;28;20056;-73
2020/12/17 05:26:59;;;;;;;9.57;3.70;;;;;;;9.28;87.85;100148.88;5075451;28;20048;-76
2020/12/17 05:29:25;;;;;;;5.53;3.42;;;;;;;9.21;87.96;100148.34;5074252;28;20056;-76
2020/12/17 05:31:53;;;;;;;7.35;4.00;;;;;;;9.23;88.46;100158.91;5075309;28;20060;-73
2020/12/17 05:34:19;;;;;;;6.80;4.05;;;;;;;9.20;88.58;100164.41;5075040;28;20052;-77
2020/12/17 05:36:47;;;;;;;5.82;3.40;;;;;;;9.05;89.14;100153.66;5075376;28;20048;-73
2020/12/17 05:39:15;;;;;;;5.38;3.70;;;;;;;9.13;89.50;100176.34;5075518;28;20048;-76
2020/12/17 05:41:44;;;;;;;9.77;4.13;;;;;;;8.96;90.24;100155.03;5075469;28;20178;-76
2020/12/17 05:44:13;;;;;;;8.07;4.45;;;;;;;9.03;90.47;100187.50;5075729;28;20509;-75
2020/12/17 05:46:42;;;;;;;9.75;4.07;;;;;;;8.91;91.63;100198.81;5074247;28;20056;-76
2020/12/17 05:49:09;;;;;;;10.82;4.40;;;;;;;8.88;92.35;100199.81;5075255;28;20053;-74
2020/12/17 05:51:36;;;;;;;7.45;4.25;;;;;;;8.88;92.15;100206.97;5074344;28;20430;-77
2020/12/17 05:54:03;;;;;;;7.82;3.47;;;;;;;8.86;92.33;100214.16;5074499;28;20430;-73
2020/12/17 05:56:29;;;;;;;6.00;4.13;;;;;;;8.72;93.01;100209.56;5073487;28;20134;-75
2020/12/17 05:59:01;;;;;;;6.90;4.45;;;;;;;8.79;92.93;100222.50;5073546;28;20063;-73
2020/12/17 06:01:27;;;;;;;8.73;4.40;;;;;;;8.65;93.37;100223.19;5074518;28;20045;-75
2020/12/17 06:03:54;;;;;;;8.15;4.28;;;;;;;8.64;92.79;100223.25;5073699;28;20045;-77
2020/12/17 06:06:21;;;;;;;10.73;5.00;;;;;;;8.62;93.41;100234.00;5075063;28;20393;-76
2020/12/17 06:08:51;;;;;;;7.78;3.90;;;;;;;8.64;92.99;100225.94;5074864;28;20443;-74
2020/12/17 06:11:23;;;;;;;5.82;3.53;;;;;;;8.62;93.84;100230.47;5075167;28;20135;-74
2020/12/17 06:13:55;;;;;;;8.30;3.92;;;;;;;8.54;94.08;100228.19;5074831;28;20064;-73
2020/12/17 06:16:23;;;;;;;7.43;4.00;;;;;;;8.54;93.65;100223.75;5075039;28;20048;-77
2020/12/17 06:18:57;;;;;;;6.72;3.92;;;;;;;8.54;93.51;100239.72;5074264;28;20056;-76
2020/12/17 06:21:24;;;;;;;6.03;3.38;;;;;;;8.53;93.21;100239.78;5073501;28;20056;-75
2020/12/17 06:23:58;;;;;;;4.63;3.45;;;;;;;8.48;93.46;100242.66;5074825;28;20052;-73
2020/12/17 06:26:25;;;;;;;4.88;3.40;;;;;;;8.47;93.57;100250.72;5077726;28;20063;-77
2020/12/17 06:28:53;;;;;;;6.60;3.33;;;;;;;8.40;94.02;100245.69;5078402;28;20056;-73
2020/12/17 06:31:19;;;;;;;6.63;3.40;;;;;;;8.42;94.04;100261.59;5078307;28;20057;-73
2020/12/17 06:33:46;;;;;;;5.60;3.40;;;;;;;8.39;93.99;100265.25;5078339;28;20056;-77
2020/12/17 06:36:25;;;;;;;11.07;3.40;;;;;;;8.32;93.74;100263.00;5078358;28;20044;-77
2020/12/17 06:38:52;;;;;;;3.25;2.83;;;;;;;8.25;93.38;100260.66;5078281;28;20389;-75
2020/12/17 06:41:22;;;;;;;5.43;2.75;;;;;;;8.34;92.42;100274.41;5078107;28;20063;-77
2020/12/17 06:43:48;;;;;;;4.90;2.88;;;;;;;8.36;93.23;100275.19;5077992;28;20446;-76
2020/12/17 06:46:36;;;;;;;6.57;2.80;;;;;;;8.27;92.76;100289.78;5077152;28;20049;-77
2020/12/17 06:49:05;;;;;;;8.40;2.85;;;;;;;8.26;93.62;100290.72;5078166;28;20052;-77
2020/12/17 06:51:40;;;;;;;6.15;2.53;;;;;;;8.14;93.68;100279.78;5077009;28;20415;-75
2020/12/17 06:54:15;;;;;;;4.50;2.40;;;;;;;8.19;93.39;100292.84;5076820;28;20389;-74
2020/12/17 06:57:13;;;;;;;4.03;1.90;;;;;;;8.18;93.20;100295.56;5077678;28;20048;-74
2020/12/17 07:00:05;;;;;;;3.50;2.08;;;;;;;8.11;93.23;100297.66;5078020;28;20059;-77
2020/12/17 07:02:42;;;;;;;4.55;2.15;;;;;;;8.13;93.01;100303.78;5077434;28;20455;-74
2020/12/17 07:05:35;;;;;;;7.38;2.08;;;;;;;8.10;92.36;100315.41;5077666;28;20056;-77
2020/12/17 07:08:02;;;;;;;3.28;1.58;;;;;;;8.01;92.34;100315.88;5077811;28;20131;-75
2020/12/17 07:10:31;;;;;;;9.55;2.10;;;;;;;8.02;93.07;100322.91;5077897;28;20053;-75
2020/12/17 07:12:58;;;;;;;6.53;1.98;;;;;;;7.99;93.12;100321.25;5077381;28;20438;-72
2020/12/17 07:15:36;;;;;;;5.75;1.70;;;;;;;7.95;93.62;100322.31;5077820;28;20052;-75
2020/12/17 07:18:21;;;;;;;4.68;1.40;;;;;;;7.98;92.16;100319.53;5077737;28;20056;-76
2020/12/17 07:21:03;;;;;;;2.33;1.30;;;;;;;7.93;92.62;100316.22;5077703;28;20055;-75
2020/12/17 07:23:36;;;;;;;5.15;1.67;;;;;;;7.90;92.85;100328.81;5076325;28;21326;-72
2020/12/17 07:26:09;;;;;;;5.57;1.40;;;;;;;7.89;93.20;100338.56;5076554;28;20125;-75
2020/12/17 07:28:36;;;;;;;2.67;1.77;;;;;;;7.84;92.88;100335.28;5076512;28;20121;-73
2020/12/17 07:31:02;;;;;;;3.17;1.52;;;;;;;7.77;93.02;100339.13;5074596;28;20044;-73
2020/12/17 07:33:49;;;;;;;2.47;1.63;;;;;;;7.71;93.10;100349.13;5075135;28;20048;-74
2020/12/17 07:36:16;;;;;;;1.80;1.50;;;;;;;7.66;92.33;100344.94;5072643;28;20131;-75
2020/12/17 07:38:43;;;;;;;4.00;2.08;;;;;;;7.65;93.07;100361.81;5076214;28;20048;-73
2020/12/17 07:41:25;;;;;;;6.97;2.03;;;;;;;7.70;93.47;100368.66;5075780;28;20098;-75
2020/12/17 07:43:53;;;;;;;5.60;1.77;;;;;;;7.58;92.75;100350.63;5075027;28;20058;-73
2020/12/17 07:46:38;;;;;;;7.63;2.47;;;;;;;7.74;93.33;100372.88;5075294;28;20059;-72
2020/12/17 07:49:30;;;;;;;6.72;2.42;;;;;;;7.77;93.40;100365.69;5076056;28;20207;-74
2020/12/17 07:51:57;;;;;;;4.35;2.05;;;;;;;7.79;92.72;100383.28;5073545;28;20362;-73
2020/12/17 07:54:23;;;;;;;2.50;1.73;;;;;;;7.73;92.89;100364.97;5075524;28;20445;-74
2020/12/17 07:56:59;;;;;;;5.07;2.10;;;;;;;7.83;91.63;100373.38;5074881;28;20045;-76
2020/12/17 07:59:26;;;;;;;2.75;1.85;;;;;;;7.85;91.92;100391.00;5076302;28;20062;-74
2020/12/17 08:01:59;;;;;;;6.20;2.00;;;;;;;7.91;91.58;100394.31;5073004;28;20056;-75
2020/12/17 08:04:25;;;;;;;3.08;2.10;;;;;;;7.92;91.94;100399.56;5075004;28;20106;-74
2020/12/17 08:06:51;;;;;;;5.53;2.42;;;;;;;7.92;92.01;100401.34;5073870;28;20408;-73
2020/12/17 08:09:19;;;;;;;2.85;1.83;;;;;;;7.99;91.69;100403.66;5074387;28;20048;-73
2020/12/17 08:11:56;;;;;;;2.78;2.10;;;;;;;7.98;91.37;100407.25;5074349;28;20385;-76
2020/12/17 08:14:24;;;;;;;3.38;1.70;;;;;;;7.99;91.02;100419.59;5074744;28;20067;-74
2020/12/17 08:16:51;;;;;;;4.60;1.75;;;;;;;8.00;90.97;100412.47;5070184;28;20139;-75
2020/12/17 08:19:17;;;;;;;3.45;1.80;;;;;;;7.96;90.39;100400.28;5072696;28;20048;-76
2020/12/17 08:21:45;;;;;;;4.63;1.98;;;;;;;8.05;91.01;100422.91;5075482;28;20044;-75
2020/12/17 08:24:11;;;;;;;6.88;1.90;;;;;;;8.03;90.64;100415.00;5075421;28;20542;-74
2020/12/17 08:26:38;;;;;;;6.72;1.80;;;;;;;8.02;90.12;100419.44;5074607;28;20048;-75
2020/12/17 08:29:04;;;;;;;4.57;1.88;;;;;;;8.00;90.00;100420.44;5074694;28;20055;-75
2020/12/17 08:31:30;;;;;;;2.75;2.10;;;;;;;7.87;91.07;100420.16;5073834;28;20055;-76
2020/12/17 08:34:01;;;;;;;1.98;1.48;;;;;;;7.84;89.70;100431.78;5074040;28;20047;-73
2020/12/17 08:36:37;;;;;;;2.13;1.60;;;;;;;7.77;90.50;100435.66;5073783;28;20412;-74
2020/12/17 08:39:08;;;;;;;5.50;1.90;;;;;;;7.75;90.56;100437.53;5072675;28;20431;-73
2020/12/17 08:41:53;;;;;;;2.35;1.50;;;;;;;7.75;90.14;100438.38;5074659;28;20131;-74
2020/12/17 08:44:32;;;;;;;3.58;1.25;;;;;;;7.63;90.47;100428.28;5071497;28;20053;-75
2020/12/17 08:47:00;;;;;;;3.92;1.30;;;;;;;7.84;88.98;100455.72;5071379;28;20048;-75
2020/12/17 08:49:28;;;;;;;2.65;1.20;;;;;;;7.89;89.73;100455.50;5072799;28;20052;-73
2020/12/17 08:51:55;;;;;;;2.63;1.63;;;;;;;7.93;89.13;100462.41;5074022;28;20068;-76
2020/12/17 08:54:32;;;;;;;3.72;1.30;;;;;;;7.91;88.44;100466.94;5073329;28;20070;-74
2020/12/17 08:57:05;;;;;;;4.90;1.38;;;;;;;7.88;88.85;100459.09;5071185;28;20430;-74
2020/12/17 08:59:31;;;;;;;2.28;1.38;;;;;;;7.87;88.56;100473.31;5072811;28;20048;-74
2020/12/17 09:01:59;;;;;;;3.03;1.10;;;;;;;7.91;88.00;100474.91;5072452;28;20114;-73
2020/12/17 09:04:26;;;;;;;2.22;1.30;;;;;;;7.93;88.46;100473.03;5074377;28;20056;-74
2020/12/17 09:06:55;;;;;;;3.22;1.10;;;;;;;7.99;87.53;100475.41;5073027;28;20049;-73
2020/12/17 09:09:26;;;;;;;2.55;1.10;;;;;;;7.92;88.11;100454.50;5072198;28;20047;-74
2020/12/17 09:12:08;;;;;;;2.97;1.50;;;;;;;8.14;87.02;100486.28;5071672;28;20048;-74
2020/12/17 09:14:37;;;;;;;4.43;1.15;;;;;;;8.22;87.57;100489.44;5071458;28;20053;-74
2020/12/17 09:17:14;;;;;;;6.15;1.08;;;;;;;8.26;86.68;100479.53;5072961;28;20052;-74
2020/12/17 09:19:41;;;;;;;5.78;1.38;;;;;;;8.36;86.13;100494.16;5071140;28;20063;-74
2020/12/17 09:22:07;;;;;;;1.10;0.90;;;;;;;8.34;86.32;100497.81;5075194;28;20126;-74
2020/12/17 09:24:36;;;;;;;3.22;1.35;;;;;;;8.32;86.54;100499.69;5074281;28;20059;-75
2020/12/17 09:27:22;;;;;;;2.60;1.08;;;;;;;8.31;86.54;100514.75;5073651;28;20044;-75
2020/12/17 09:30:11;;;;;;;2.92;1.40;;;;;;;8.37;86.55;100514.50;5073116;28;20351;-75
2020/12/17 09:32:40;;;;;;;6.60;1.67;;;;;;;8.29;87.11;100514.81;5074785;28;20049;-75
2020/12/17 09:35:12;;;;;;;4.93;1.30;;;;;;;8.31;86.44;100519.22;5074385;28;20341;-74
2020/12/17 09:37:40;;;;;;;3.42;1.50;;;;;;;8.21;87.08;100532.94;5074177;28;20376;-74
2020/12/17 09:40:10;;;;;;;6.47;1.50;;;;;;;8.18;87.20;100526.91;5074791;28;20055;-74
2020/12/17 09:42:37;;;;;;;4.53;1.40;;;;;;;8.20;86.50;100544.50;5074030;28;20101;-74
2020/12/17 09:45:20;;;;;;;4.20;1.33;;;;;;;8.24;86.79;100548.75;5073485;28;20354;-74
2020/12/17 09:47:46;;;;;;;2.88;1.73;;;;;;;8.19;87.16;100532.16;5069981;28;20422;-74
2020/12/17 09:50:15;;;;;;;4.13;1.38;;;;;;;8.21;86.77;100540.91;5073306;28;20040;-74
2020/12/17 09:52:42;;;;;;;5.93;1.33;;;;;;;8.29;86.94;100543.25;5073709;28;20052;-72
2020/12/17 09:55:10;;;;;;;3.58;1.70;;;;;;;8.41;86.78;100552.44;5073404;28;20045;-74
2020/12/17 09:57:41;;;;;;;1.98;1.23;;;;;;;8.49;86.44;100557.44;5073614;28;20048;-73
2020/12/17 10:00:10;;;;;;;3.30;1.65;;;;;;;8.58;84.94;100561.47;5075452;28;20048;-75
2020/12/17 10:02:37;;;;;;;5.20;2.10;;;;;;;8.56;85.67;100561.56;5078691;28;20052;-75
2020/12/17 10:05:04;;;;;;;2.83;1.58;;;;;;;8.51;85.73;100569.72;5078429;28;20779;-73
2020/12/17 10:07:31;;;;;;;4.50;1.85;;;;;;;8.50;86.02;100564.47;5078460;28;20408;-76
2020/12/17 10:09:58;;;;;;;3.88;1.30;;;;;;;8.48;85.63;100572.50;5077867;28;20055;-73
2020/12/17 10:12:39;;;;;;;3.03;1.38;;;;;;;8.42;85.35;100559.50;5078404;28;20060;-75
2020/12/17 10:15:05;;;;;;;6.70;1.88;;;;;;;8.52;85.37;100582.13;5078128;28;20488;-75
2020/12/17 10:17:31;;;;;;;3.13;1.50;;;;;;;8.60;85.73;100586.22;5078267;28;20045;-74
2020/12/17 10:19:57;;;;;;;5.00;1.40;;;;;;;8.66;85.08;100559.34;5077862;28;20052;-74
2020/12/17 10:22:36;;;;;;;7.18;2.50;;;;;;;8.73;84.04;100576.75;5077421;28;20442;-74
2020/12/17 10:25:05;;;;;;;2.60;1.60;;;;;;;8.69;84.22;100567.16;5078127;28;20086;-73
2020/12/17 10:27:33;;;;;;;3.83;1.55;;;;;;;8.68;84.26;100565.44;5078229;28;20048;-73
2020/12/17 10:29:59;;;;;;;7.53;1.50;;;;;;;8.71;83.79;100578.59;5077941;28;20048;-73
2020/12/17 10:32:25;;;;;;;4.65;1.92;;;;;;;8.70;84.13;100579.53;5077852;28;20081;-73
2020/12/17 10:34:54;;;;;;;6.05;1.50;;;;;;;8.60;83.97;100575.59;5076350;28;20306;-74
2020/12/17 10:37:24;;;;;;;3.97;1.52;;;;;;;8.66;84.08;100581.47;5075715;28;20045;-73
2020/12/17 10:39:50;;;;;;;5.63;1.73;;;;;;;8.64;84.20;100582.47;5076282;28;20567;-73
2020/12/17 10:42:19;;;;;;;4.30;1.75;;;;;;;8.64;84.38;100591.34;5077417;28;20056;-75
2020/12/17 10:44:45;;;;;;;4.70;1.88;;;;;;;8.62;83.73;100587.00;5076734;28;20485;-77
2020/12/17 10:47:11;;;;;;;5.13;2.17;;;;;;;8.62;84.09;100587.00;5077398;28;20037;-74
2020/12/17 10:49:37;;;;;;;4.85;2.20;;;;;;;8.67;83.46;100590.34;5078166;28;20045;-77
2020/12/17 10:52:04;;;;;;;5.53;1.73;;;;;;;8.77;82.87;100596.94;5077057;28;20090;-73
2020/12/17 10:54:30;;;;;;;6.50;1.83;;;;;;;8.87;83.44;100585.88;5077168;28;20151;-74
2020/12/17 10:56:56;;;;;;;3.50;1.60;;;;;;;8.90;81.99;100591.91;5076210;28;20098;-76
2020/12/17 10:59:23;;;;;;;2.97;1.73;;;;;;;8.86;82.81;100593.00;5075197;28;20056;-77
2020/12/17 11:01:49;;;;;;;4.90;2.10;;;;;;;8.84;83.12;100597.53;5076450;28;20044;-73
2020/12/17 11:04:15;;;;;;;6.28;2.00;;;;;;;8.83;82.94;100596.66;5076549;28;20052;-75
2020/12/17 11:06:41;;;;;;;5.45;1.98;;;;;;;8.62;82.30;100555.97;5073073;28;20094;-76
2020/12/17 11:09:08;;;;;;;11.60;3.75;;;;;;;8.85;82.26;100583.28;5060068;28;20401;-76
2020/12/17 11:11:34;;;;;;;7.78;1.90;;;;;;;8.81;82.17;100571.91;5076843;28;20048;-75
2020/12/17 11:14:00;;;;;;;3.25;1.67;;;;;;;9.03;80.46;100592.19;5076078;28;20434;-74
2020/12/17 11:16:27;;;;;;;9.73;1.80;;;;;;;9.12;80.83;100582.03;5076508;28;20128;-71
2020/12/17 11:18:53;;;;;;;6.95;2.08;;;;;;;9.13;80.29;100581.97;5058978;28;20481;-74
2020/12/17 11:21:21;;;;;;;5.55;1.65;;;;;;;9.08;79.81;100568.88;5074729;28;20051;-73
2020/12/17 11:23:47;;;;;;;4.47;1.67;;;;;;;9.28;80.25;100588.34;5074146;28;20405;-75
2020/12/17 11:26:13;;;;;;;4.35;1.70;;;;;;;9.28;78.99;100600.78;5075876;28;20049;-74
2020/12/17 11:28:40;;;;;;;6.15;1.58;;;;;;;9.32;78.71;100587.25;5075907;28;20126;-75
2020/12/17 11:31:08;;;;;;;2.45;1.40;;;;;;;9.36;78.09;100604.81;5076107;28;20048;-74
2020/12/17 11:33:35;;;;;;;4.00;1.75;;;;;;;9.43;78.66;100601.84;5074768;28;20056;-74
2020/12/17 11:36:04;;;;;;;4.88;1.88;;;;;;;9.47;78.13;100608.75;5072318;28;20044;-74
2020/12/17 11:38:31;;;;;;;5.43;1.67;;;;;;;9.55;78.23;100593.25;5076106;28;20055;-75
2020/12/17 11:40:58;;;;;;;5.75;2.00;;;;;;;9.63;77.85;100600.84;5075448;28;20048;-73